Skip Navigation Links Skip Navigation Links

Current Weather

Ronald Reagan Washington National, Washington

For information only: do not use for flight planning or navigation.
Latest weather
Observation time Saturday, September 22, 2018 10:52 AM EDT
Local time Saturday, September 22, 2018 11:58 AM EDT
Flight conditions Visual Meteorological Conditions
Winds
Wind direction Northwest (320°)
Wind speed 13 mph
Visibility 10 mi.
Sky condition
Ceiling 9,000 ft. broken clouds
Cloud layer few clouds 3,000 ft.
Cloud layer broken clouds 9,000 ft.
Cloud layer broken clouds 11,000 ft.
Cloud layer broken clouds 15,000 ft.
Temperature 77°F
Dewpoint 65°F
Altimeter 30.13 in.Hg
Pressure change last 3 hours-0.04 in.Hg
Pressure rising more slowly
Derived measurements
Relative humidity 66%
Heat index 77°F
Density altitude 1223 ft.
Sea-level pressure 30.13 in.Hg
Remarks
Automated weather observing station with precipitation discriminator.
METAR KDCA 221452Z 32011KT 10SM FEW030 BKN090 BKN110 BKN150 25/18 A3013 RMK AO2 SLP202 T02500183 51014

Settings

Location code

InnerDrive.Weather 4.0.6770.0 Release CLR 4.0.30319.42000
Copyright ©2018 Inner Drive Technology. All rights reserved. Portions Copyright ©1986-2018 David Braverman.

Find weather

Site navigation


Skip Navigation Links

Place info

Page info

PayPal - The safer, easier way to pay online!

Return home.

Copyright ©2018 Inner Drive Technology. Purveyors of fine, hand-crafted computer software. Page printed 2018-09-22T15:58:40 UTC.